Time;durP1;ratioP1;P1;durP2;ratioP2;P2;SDS_P1;SDS_P2;PMS_P1;PMS_P2;Temp;Humidity;BMP_temperature;BMP_pressure;BME280_temperature;BME280_humidity;BME280_pressure;Samples;Min_cycle;Max_cycle;Signal;HPM_P1;HPM_P2
2022/09/29 00:00:38;;;;;;;;;;;17.30;59.60;;;;;;5074817;28;19989;-68
2022/09/29 00:03:05;;;;;;;;;;;17.30;59.60;;;;;;5074568;28;19920;-68
2022/09/29 00:05:30;;;;;;;;;;;17.30;59.60;;;;;;5074858;28;19963;-68
2022/09/29 00:07:56;;;;;;;;;;;17.30;59.60;;;;;;5092486;28;20040;-68
2022/09/29 00:10:22;;;;;;;;;;;17.20;59.50;;;;;;5074523;28;20277;-68
2022/09/29 00:12:48;;;;;;;;;;;17.20;59.50;;;;;;5074557;28;19931;-68
2022/09/29 00:15:14;;;;;;;;;;;17.20;59.60;;;;;;5074770;28;20383;-68
2022/09/29 00:17:39;;;;;;;;;;;17.20;59.60;;;;;;5074664;28;19946;-68
2022/09/29 00:20:05;;;;;;;;;;;17.20;59.60;;;;;;5074768;28;20333;-68
2022/09/29 00:22:31;;;;;;;;;;;17.20;59.50;;;;;;5092286;28;19924;-68
2022/09/29 00:24:56;;;;;;;;;;;17.20;59.50;;;;;;5057747;28;20395;-68
2022/09/29 00:27:22;;;;;;;;;;;17.20;59.50;;;;;;5092402;28;19920;-68
2022/09/29 00:29:47;;;;;;;;;;;17.20;59.50;;;;;;5092488;28;20253;-68
2022/09/29 00:32:13;;;;;;;;;;;17.20;59.50;;;;;;5092133;28;19925;-68
2022/09/29 00:34:39;;;;;;;;;;;17.20;59.50;;;;;;5074306;28;19931;-68
2022/09/29 00:37:04;;;;;;;;;;;17.20;59.40;;;;;;5091414;28;19920;-68
2022/09/29 00:39:30;;;;;;;;;;;17.20;59.40;;;;;;5074299;28;19920;-68
2022/09/29 00:41:56;;;;;;;;;;;17.20;59.50;;;;;;5092470;28;20400;-68
2022/09/29 00:47:03;;;;;;;;;;;17.20;59.40;;;;;;5121907;27;2023459;-66
2022/09/29 00:52:20;;;;;;;;;;;17.10;59.40;;;;;;5089887;28;20319;-66
2022/09/29 00:54:49;;;;;;;;;;;17.10;59.30;;;;;;5088455;28;19920;-66
2022/09/29 00:57:16;;;;;;;;;;;17.10;59.30;;;;;;5088849;28;19927;-66
2022/09/29 00:59:46;;;;;;;;;;;17.10;59.30;;;;;;5088345;28;20388;-66
2022/09/29 01:02:13;;;;;;;;;;;17.10;59.30;;;;;;5088391;28;20399;-66
2022/09/29 01:04:39;;;;;;;;;;;17.00;59.20;;;;;;5088297;28;20010;-66
2022/09/29 01:07:05;;;;;;;;;;;17.00;59.20;;;;;;5089589;28;19967;-67
2022/09/29 01:09:32;;;;;;;;;;;17.00;59.30;;;;;;5088261;28;20336;-66
2022/09/29 01:11:58;;;;;;;;;;;17.00;59.20;;;;;;5089430;28;19928;-66
2022/09/29 01:14:24;;;;;;;;;;;17.00;59.20;;;;;;5088438;28;20015;-66
2022/09/29 01:16:50;;;;;;;;;;;17.00;59.20;;;;;;5088234;28;20375;-66
2022/09/29 01:19:17;;;;;;;;;;;17.00;59.20;;;;;;5088340;28;19920;-66
2022/09/29 01:27:09;;;;;;;;;;;17.00;59.20;;;;;;5089969;28;19912;-66
2022/09/29 01:32:42;;;;;;;;;;;17.00;59.20;;;;;;5089845;28;19913;-66
2022/09/29 01:35:12;;;;;;;;;;;17.00;59.20;;;;;;5088175;28;20546;-66
2022/09/29 01:37:57;;;;;;;;;;;17.00;59.10;;;;;;5090060;28;20284;-66
2022/09/29 01:43:07;;;;;;;;;;;17.00;59.10;;;;;;5089912;28;19912;-67
2022/09/29 01:45:33;;;;;;;;;;;17.00;59.00;;;;;;5088492;28;19966;-66
2022/09/29 01:48:04;;;;;;;;;;;16.90;59.00;;;;;;5088624;28;19927;-66
2022/09/29 01:50:34;;;;;;;;;;;16.90;59.00;;;;;;5088512;28;19945;-66
2022/09/29 01:53:02;;;;;;;;;;;16.90;59.00;;;;;;5088504;28;20003;-69
2022/09/29 01:55:29;;;;;;;;;;;16.90;59.00;;;;;;5088525;28;19920;-66
2022/09/29 01:58:05;;;;;;;;;;;16.90;59.00;;;;;;5089613;28;19932;-66
2022/09/29 02:00:34;;;;;;;;;;;16.90;58.90;;;;;;5088612;28;20280;-66
2022/09/29 02:03:17;;;;;;;;;;;16.90;58.90;;;;;;5088142;28;19969;-66
2022/09/29 02:08:26;;;;;;;;;;;16.90;58.90;;;;;;5110394;27;19927;-66
2022/09/29 02:10:56;;;;;;;;;;;16.90;58.90;;;;;;5109034;28;19920;-66
2022/09/29 02:13:23;;;;;;;;;;;16.90;58.90;;;;;;5108707;28;20375;-66
2022/09/29 02:15:50;;;;;;;;;;;16.90;58.90;;;;;;5108828;28;20401;-66
2022/09/29 02:18:18;;;;;;;;;;;16.80;58.80;;;;;;5109114;28;19966;-66
2022/09/29 02:20:45;;;;;;;;;;;16.80;59.60;;;;;;5109048;28;19920;-66
2022/09/29 02:23:11;;;;;;;;;;;16.80;58.80;;;;;;5109005;28;19973;-66
2022/09/29 02:25:37;;;;;;;;;;;16.80;58.80;;;;;;5108702;28;19924;-66
2022/09/29 02:28:03;;;;;;;;;;;16.80;58.70;;;;;;5108536;28;19924;-69
2022/09/29 02:30:29;;;;;;;;;;;16.80;58.60;;;;;;5109777;28;19920;-69
2022/09/29 02:32:54;;;;;;;;;;;16.80;58.60;;;;;;5108436;28;19920;-66
2022/09/29 02:35:20;;;;;;;;;;;16.80;58.60;;;;;;5108513;28;19919;-66
2022/09/29 02:40:46;;;;;;;;;;;16.80;58.50;;;;;;5089822;28;19912;-66
2022/09/29 02:43:16;;;;;;;;;;;16.80;58.30;;;;;;5089669;28;19947;-66
2022/09/29 02:46:04;;;;;;;;;;;16.80;58.30;;;;;;5088563;28;19924;-66
2022/09/29 02:51:11;;;;;;;;;;;16.80;58.10;;;;;;5128233;27;1846214;-68
2022/09/29 02:56:37;;;;;;;;;;;16.80;58.10;;;;;;5089927;28;19919;-67
2022/09/29 02:59:06;;;;;;;;;;;16.80;58.10;;;;;;5088352;28;19920;-67
2022/09/29 03:01:32;;;;;;;;;;;16.80;58.20;;;;;;5089835;28;19920;-67
2022/09/29 03:03:58;;;;;;;;;;;16.80;58.20;;;;;;5088696;28;20319;-69
2022/09/29 03:06:24;;;;;;;;;;;16.80;58.20;;;;;;5088731;28;20019;-67
2022/09/29 03:08:49;;;;;;;;;;;16.70;58.20;;;;;;5088443;28;19925;-67
2022/09/29 03:11:15;;;;;;;;;;;16.70;58.20;;;;;;5088471;28;19920;-67
2022/09/29 03:13:40;;;;;;;;;;;16.80;58.30;;;;;;5088324;28;19955;-67
2022/09/29 03:16:09;;;;;;;;;;;16.70;58.20;;;;;;5089490;28;19924;-67
2022/09/29 03:18:34;;;;;;;;;;;16.70;58.20;;;;;;5087384;28;19927;-67
2022/09/29 03:21:00;;;;;;;;;;;16.70;58.30;;;;;;5089236;28;19920;-67
2022/09/29 03:23:25;;;;;;;;;;;16.70;58.30;;;;;;5089380;28;19920;-67
2022/09/29 03:25:51;;;;;;;;;;;16.70;58.30;;;;;;5088125;28;19920;-67
2022/09/29 03:28:17;;;;;;;;;;;16.70;58.20;;;;;;5088307;28;19974;-67
2022/09/29 03:30:43;;;;;;;;;;;16.70;58.30;;;;;;5087782;28;19924;-67
2022/09/29 03:33:09;;;;;;;;;;;16.70;58.20;;;;;;5088233;28;20015;-67
2022/09/29 03:35:35;;;;;;;;;;;16.70;58.20;;;;;;5087679;28;20023;-67
2022/09/29 03:38:00;;;;;;;;;;;16.70;58.30;;;;;;5089138;28;19920;-67
2022/09/29 03:40:26;;;;;;;;;;;16.70;58.30;;;;;;5088857;28;19927;-67
2022/09/29 03:42:52;;;;;;;;;;;16.70;58.20;;;;;;5088034;28;19920;-70
2022/09/29 03:45:17;;;;;;;;;;;16.70;58.20;;;;;;5087957;28;19978;-67
2022/09/29 03:47:43;;;;;;;;;;;16.70;58.30;;;;;;5088952;28;19967;-67
2022/09/29 03:50:08;;;;;;;;;;;16.60;58.20;;;;;;5088793;28;19971;-67
2022/09/29 03:52:34;;;;;;;;;;;16.60;58.10;;;;;;5104397;28;20470;-67
2022/09/29 03:55:00;;;;;;;;;;;16.60;58.10;;;;;;5087324;28;19928;-67
2022/09/29 03:57:25;;;;;;;;;;;16.60;58.10;;;;;;5087731;28;20280;-67
2022/09/29 03:59:52;;;;;;;;;;;16.60;58.10;;;;;;5087681;28;20354;-67
2022/09/29 04:02:18;;;;;;;;;;;16.60;58.10;;;;;;5088890;28;20341;-67
2022/09/29 04:04:44;;;;;;;;;;;16.60;58.00;;;;;;5088657;28;20291;-67
2022/09/29 04:07:10;;;;;;;;;;;16.60;58.00;;;;;;5076240;28;19924;-67
2022/09/29 04:09:35;;;;;;;;;;;16.60;58.00;;;;;;5075078;28;19920;-67
2022/09/29 04:12:01;;;;;;;;;;;16.60;57.90;;;;;;5073294;28;19920;-68
2022/09/29 04:14:26;;;;;;;;;;;16.60;57.80;;;;;;5073448;28;19924;-69
2022/09/29 04:16:52;;;;;;;;;;;16.60;58.60;;;;;;5074935;28;20287;-69
2022/09/29 04:19:17;;;;;;;;;;;16.60;57.70;;;;;;5073642;28;19920;-67
2022/09/29 04:21:43;;;;;;;;;;;16.60;57.70;;;;;;5073637;28;19927;-70
2022/09/29 04:24:08;;;;;;;;;;;16.60;57.70;;;;;;5073459;28;20391;-68
2022/09/29 04:26:34;;;;;;;;;;;16.60;57.60;;;;;;5073292;28;20015;-68
2022/09/29 04:28:59;;;;;;;;;;;16.60;57.50;;;;;;5074964;28;19931;-67
2022/09/29 04:31:25;;;;;;;;;;;16.60;57.50;;;;;;5074793;28;20376;-67
2022/09/29 04:33:51;;;;;;;;;;;16.60;57.50;;;;;;5073465;28;19921;-70
2022/09/29 04:36:16;;;;;;;;;;;16.60;57.50;;;;;;5073529;28;19920;-67
2022/09/29 04:38:42;;;;;;;;;;;16.60;57.50;;;;;;5056375;28;20334;-67
2022/09/29 04:41:08;;;;;;;;;;;16.60;57.50;;;;;;5073366;28;19921;-67
2022/09/29 04:43:33;;;;;;;;;;;16.60;57.50;;;;;;5073480;28;19920;-67
2022/09/29 04:46:06;;;;;;;;;;;16.60;57.50;;;;;;5074618;28;19975;-67
2022/09/29 04:48:32;;;;;;;;;;;16.60;58.20;;;;;;5073198;28;19957;-67
2022/09/29 04:50:58;;;;;;;;;;;16.60;57.40;;;;;;5072905;28;19920;-67
2022/09/29 04:53:23;;;;;;;;;;;16.60;57.40;;;;;;5073090;28;19921;-67
2022/09/29 04:55:49;;;;;;;;;;;16.60;57.40;;;;;;5072687;28;19929;-67
2022/09/29 04:58:15;;;;;;;;;;;16.60;57.40;;;;;;5072680;28;19921;-67
2022/09/29 05:00:40;;;;;;;;;;;16.60;57.40;;;;;;5072732;28;19920;-67
2022/09/29 05:03:06;;;;;;;;;;;16.50;57.30;;;;;;5072625;28;19920;-67
2022/09/29 05:05:31;;;;;;;;;;;16.60;57.30;;;;;;5074242;28;19943;-68
2022/09/29 05:07:58;;;;;;;;;;;16.60;57.30;;;;;;5073759;28;19928;-67
2022/09/29 05:10:25;;;;;;;;;;;16.60;57.30;;;;;;5072586;28;19928;-68
2022/09/29 05:12:51;;;;;;;;;;;16.50;57.30;;;;;;5074117;28;19924;-68
2022/09/29 05:15:17;;;;;;;;;;;16.60;57.30;;;;;;5072545;28;19931;-67
2022/09/29 05:17:43;;;;;;;;;;;16.60;57.30;;;;;;5071414;28;19920;-67
2022/09/29 05:20:09;;;;;;;;;;;16.60;57.20;;;;;;5073652;28;19970;-67
2022/09/29 05:22:34;;;;;;;;;;;16.50;57.20;;;;;;5070655;28;19924;-67
2022/09/29 05:25:00;;;;;;;;;;;16.60;57.60;;;;;;5071636;28;19924;-67
2022/09/29 05:27:25;;;;;;;;;;;16.60;57.70;;;;;;5073466;28;19927;-67
2022/09/29 05:29:51;;;;;;;;;;;16.60;57.50;;;;;;5071715;28;19928;-68
2022/09/29 05:32:16;;;;;;;;;;;16.60;57.50;;;;;;5071865;28;19920;-68
2022/09/29 05:34:42;;;;;;;;;;;16.60;57.40;;;;;;5069620;28;20392;-67
2022/09/29 05:37:08;;;;;;;;;;;16.70;57.60;;;;;;5072276;28;20011;-66
2022/09/29 05:39:36;;;;;;;;;;;16.80;57.60;;;;;;5071610;28;20487;-66
2022/09/29 05:42:02;;;;;;;;;;;17.00;57.40;;;;;;5072000;28;20376;-67
2022/09/29 05:44:27;;;;;;;;;;;17.10;57.10;;;;;;5071530;28;19920;-67
2022/09/29 05:46:53;;;;;;;;;;;17.30;56.90;;;;;;5071551;28;19943;-67
2022/09/29 05:49:18;;;;;;;;;;;17.40;56.70;;;;;;5069040;28;20361;-66
2022/09/29 05:51:44;;;;;;;;;;;17.50;56.40;;;;;;5070939;28;19990;-66
2022/09/29 05:54:10;;;;;;;;;;;17.60;56.10;;;;;;5074087;28;19979;-66
2022/09/29 05:56:35;;;;;;;;;;;17.80;56.00;;;;;;5075256;28;20371;-66
2022/09/29 05:59:01;;;;;;;;;;;17.80;55.90;;;;;;5074275;28;19974;-66
2022/09/29 06:01:26;;;;;;;;;;;17.90;55.70;;;;;;5065335;28;20303;-66
2022/09/29 06:03:53;;;;;;;;;;;17.90;55.30;;;;;;5071061;28;19947;-66
2022/09/29 06:06:20;;;;;;;;;;;17.90;55.30;;;;;;5069511;28;20543;-66
2022/09/29 06:08:46;;;;;;;;;;;17.90;55.20;;;;;;5068288;28;20015;-67
2022/09/29 06:11:12;;;;;;;;;;;18.00;55.20;;;;;;5063559;28;20537;-66
2022/09/29 06:13:40;;;;;;;;;;;17.90;55.00;;;;;;5084508;28;19920;-67
2022/09/29 06:16:06;;;;;;;;;;;17.90;55.30;;;;;;5082875;28;19927;-67
2022/09/29 06:18:32;;;;;;;;;;;17.90;55.40;;;;;;5068058;28;19924;-67
2022/09/29 06:20:59;;;;;;;;;;;17.90;55.60;;;;;;5083965;28;19927;-66
2022/09/29 06:23:25;;;;;;;;;;;18.00;55.70;;;;;;5066828;28;19928;-67
2022/09/29 06:25:54;;;;;;;;;;;18.00;55.80;;;;;;5075326;28;20058;-67
2022/09/29 06:28:19;;;;;;;;;;;18.10;56.00;;;;;;5049077;28;19929;-66
2022/09/29 06:30:45;;;;;;;;;;;18.10;56.10;;;;;;5054918;28;20715;-64
2022/09/29 06:33:10;;;;;;;;;;;18.10;55.90;;;;;;5067636;28;19921;-65
2022/09/29 06:38:21;;;;;;;;;;;18.20;55.80;;;;;;5048313;28;22164;-65
2022/09/29 06:40:47;;;;;;;;;;;18.20;55.50;;;;;;5051517;28;19931;-66
2022/09/29 06:43:12;;;;;;;;;;;18.20;55.40;;;;;;5049484;28;20046;-65
2022/09/29 06:45:38;;;;;;;;;;;18.20;55.40;;;;;;5069839;28;19974;-65
2022/09/29 06:48:04;;;;;;;;;;;18.10;55.20;;;;;;5060978;28;19927;-69
2022/09/29 06:50:30;;;;;;;;;;;18.10;55.30;;;;;;5061228;28;20126;-65
2022/09/29 06:52:55;;;;;;;;;;;18.10;55.70;;;;;;5046028;28;20735;-67
2022/09/29 06:55:21;;;;;;;;;;;18.10;56.00;;;;;;5051437;28;19935;-67
2022/09/29 06:57:46;;;;;;;;;;;18.10;56.20;;;;;;5040366;28;19934;-67
2022/09/29 07:00:12;;;;;;;;;;;18.10;56.10;;;;;;5049474;28;20022;-67
2022/09/29 07:02:38;;;;;;;;;;;18.20;55.90;;;;;;5053577;28;19978;-66
2022/09/29 07:05:03;;;;;;;;;;;18.20;56.10;;;;;;5066521;28;19935;-66
2022/09/29 07:07:29;;;;;;;;;;;18.20;55.40;;;;;;5053687;28;19924;-66
2022/09/29 07:09:55;;;;;;;;;;;18.30;55.40;;;;;;5051137;28;19925;-66
2022/09/29 07:12:20;;;;;;;;;;;18.30;55.00;;;;;;5052160;28;20421;-66
2022/09/29 07:14:46;;;;;;;;;;;18.40;55.10;;;;;;5052669;28;20006;-66
2022/09/29 07:17:12;;;;;;;;;;;18.40;55.20;;;;;;5053063;28;20323;-66
2022/09/29 07:19:37;;;;;;;;;;;18.40;55.50;;;;;;5055797;28;20380;-67
2022/09/29 07:22:04;;;;;;;;;;;18.40;55.60;;;;;;5037450;28;19928;-66
2022/09/29 07:24:30;;;;;;;;;;;18.40;55.80;;;;;;5055374;28;20010;-65
2022/09/29 07:26:55;;;;;;;;;;;18.40;56.00;;;;;;5053243;28;19932;-67
2022/09/29 07:29:21;;;;;;;;;;;18.30;56.20;;;;;;5051695;28;20352;-67
2022/09/29 07:31:50;;;;;;;;;;;18.30;56.20;;;;;;5051158;28;20434;-68
2022/09/29 07:34:16;;;;;;;;;;;18.30;56.40;;;;;;5064486;28;19968;-67
2022/09/29 07:36:41;;;;;;;;;;;18.30;56.50;;;;;;5052074;28;20002;-66
2022/09/29 07:39:07;;;;;;;;;;;18.30;56.50;;;;;;5051653;28;19924;-67
2022/09/29 07:41:32;;;;;;;;;;;18.30;56.50;;;;;;5073363;28;19931;-67
2022/09/29 07:43:58;;;;;;;;;;;18.20;56.60;;;;;;5062680;28;20024;-67
2022/09/29 07:46:23;;;;;;;;;;;18.20;56.70;;;;;;5059768;28;19990;-68
2022/09/29 07:48:49;;;;;;;;;;;18.20;56.80;;;;;;5071749;28;20669;-67
2022/09/29 07:51:16;;;;;;;;;;;18.20;56.90;;;;;;5061347;28;19968;-67
2022/09/29 07:53:42;;;;;;;;;;;18.20;56.70;;;;;;5059025;28;19925;-68
2022/09/29 07:56:09;;;;;;;;;;;18.30;56.60;;;;;;5057436;28;20358;-67
2022/09/29 07:58:34;;;;;;;;;;;18.40;56.30;;;;;;5057790;28;20441;-68
2022/09/29 08:01:03;;;;;;;;;;;18.40;56.20;;;;;;5055554;28;19935;-68
2022/09/29 08:03:29;;;;;;;;;;;18.40;56.00;;;;;;5056167;28;19933;-70
2022/09/29 08:05:56;;;;;;;;;;;18.50;56.00;;;;;;5058876;28;20033;-67
2022/09/29 08:08:22;;;;;;;;;;;18.50;55.80;;;;;;5058833;28;19947;-68
2022/09/29 08:10:47;;;;;;;;;;;18.50;55.70;;;;;;5061008;28;19924;-68
2022/09/29 08:13:13;;;;;;;;;;;18.60;55.80;;;;;;5054899;28;19943;-68
2022/09/29 08:15:38;;;;;;;;;;;18.60;55.70;;;;;;5051075;28;19925;-68
2022/09/29 08:18:04;;;;;;;;;;;18.60;55.60;;;;;;5057798;28;20026;-68
2022/09/29 08:20:30;;;;;;;;;;;18.60;55.60;;;;;;5073807;28;19979;-68
2022/09/29 08:22:57;;;;;;;;;;;18.70;55.60;;;;;;5058817;28;19964;-67
2022/09/29 08:25:24;;;;;;;;;;;18.70;55.60;;;;;;5067661;28;19959;-66
2022/09/29 08:27:50;;;;;;;;;;;18.70;55.60;;;;;;5056922;28;19929;-66
2022/09/29 08:30:16;;;;;;;;;;;18.80;55.70;;;;;;5055630;28;19924;-68
2022/09/29 08:32:41;;;;;;;;;;;18.80;55.70;;;;;;5057235;28;19920;-68
2022/09/29 08:35:07;;;;;;;;;;;18.90;55.80;;;;;;5054278;28;19924;-67
2022/09/29 08:37:33;;;;;;;;;;;19.00;55.90;;;;;;5054114;28;20396;-68
2022/09/29 08:39:58;;;;;;;;;;;19.00;55.80;;;;;;5053314;28;19951;-67
2022/09/29 08:42:44;;;;;;;;;;;19.00;55.90;;;;;;5056051;28;20377;-67
2022/09/29 08:45:13;;;;;;;;;;;19.00;55.70;;;;;;5058393;28;20028;-67
2022/09/29 08:47:41;;;;;;;;;;;19.00;55.60;;;;;;5052297;28;19925;-65
2022/09/29 08:50:13;;;;;;;;;;;19.00;55.60;;;;;;5043910;28;20419;-64
2022/09/29 08:52:41;;;;;;;;;;;18.90;55.50;;;;;;5050103;28;20298;-65
2022/09/29 08:55:26;;;;;;;;;;;18.90;55.60;;;;;;5063812;28;19929;-65
2022/09/29 08:57:56;;;;;;;;;;;18.90;55.70;;;;;;5053791;28;19921;-66
2022/09/29 09:00:27;;;;;;;;;;;18.80;55.80;;;;;;5070057;28;20467;-66
2022/09/29 09:02:59;;;;;;;;;;;18.80;55.80;;;;;;5071929;28;19924;-67
2022/09/29 09:05:44;;;;;;;;;;;18.70;55.90;;;;;;5071233;28;19924;-65
2022/09/29 09:08:30;;;;;;;;;;;18.60;56.00;;;;;;5071155;28;19928;-65
2022/09/29 09:13:56;;;;;;;;;;;18.50;56.10;;;;;;5061910;28;19928;-66
2022/09/29 09:16:32;;;;;;;;;;;18.60;56.10;;;;;;5041766;28;19936;-63
2022/09/29 09:21:41;;;;;;;;;;;18.60;56.30;;;;;;5081667;27;19920;-64
2022/09/29 09:27:02;;;;;;;;;;;18.60;56.00;;;;;;5088944;27;19927;-64
2022/09/29 09:29:30;;;;;;;;;;;18.70;56.20;;;;;;5080610;28;19921;-65
2022/09/29 09:32:00;;;;;;;;;;;18.70;55.90;;;;;;5081675;28;20018;-65
2022/09/29 09:34:31;;;;;;;;;;;18.70;55.90;;;;;;5077121;28;19925;-64
2022/09/29 09:36:59;;;;;;;;;;;18.70;55.90;;;;;;5079013;28;19924;-63
2022/09/29 09:39:27;;;;;;;;;;;18.70;56.10;;;;;;5078136;28;19928;-65
2022/09/29 09:41:55;;;;;;;;;;;18.60;55.90;;;;;;5107319;27;20046;-64
2022/09/29 09:44:23;;;;;;;;;;;18.60;56.10;;;;;;5077764;28;19928;-64
2022/09/29 09:46:51;;;;;;;;;;;18.60;56.20;;;;;;5078957;28;20045;-65
2022/09/29 09:52:10;;;;;;;;;;;18.70;56.70;;;;;;5077854;27;19924;-65
2022/09/29 10:02:49;;;;;;;;;;;18.80;56.50;;;;;;5086832;27;19931;-65
2022/09/29 10:05:16;;;;;;;;;;;18.80;56.40;;;;;;5095865;28;19973;-65
2022/09/29 10:07:42;;;;;;;;;;;18.90;56.70;;;;;;5093520;28;19920;-66
2022/09/29 10:10:25;;;;;;;;;;;18.80;57.00;;;;;;5091783;28;20332;-65
2022/09/29 10:12:56;;;;;;;;;;;18.90;57.20;;;;;;5090721;28;19934;-66
2022/09/29 10:15:26;;;;;;;;;;;18.90;57.40;;;;;;5120998;27;19935;-66
2022/09/29 10:18:00;;;;;;;;;;;18.90;57.50;;;;;;5091086;28;20381;-67
2022/09/29 10:20:32;;;;;;;;;;;19.00;57.40;;;;;;5090988;28;19938;-66
2022/09/29 10:23:17;;;;;;;;;;;19.00;57.50;;;;;;5088723;28;20053;-68
2022/09/29 10:25:49;;;;;;;;;;;19.10;57.50;;;;;;5125341;27;21043;-65
2022/09/29 10:28:16;;;;;;;;;;;19.10;57.40;;;;;;5085887;28;20325;-66
2022/09/29 10:30:42;;;;;;;;;;;19.20;57.20;;;;;;5088986;28;19926;-68
2022/09/29 10:33:12;;;;;;;;;;;19.20;57.10;;;;;;5096881;28;20302;-66
2022/09/29 10:35:40;;;;;;;;;;;19.20;56.90;;;;;;5093316;28;19920;-66
2022/09/29 10:38:25;;;;;;;;;;;19.20;56.70;;;;;;5092828;28;19920;-66
2022/09/29 10:41:01;;;;;;;;;;;19.20;56.70;;;;;;5124338;27;20053;-68
2022/09/29 10:43:31;;;;;;;;;;;19.20;56.50;;;;;;5083139;28;19928;-66
2022/09/29 10:45:58;;;;;;;;;;;19.10;56.40;;;;;;5083407;28;19931;-65
2022/09/29 10:48:24;;;;;;;;;;;19.20;56.40;;;;;;5085276;28;19928;-66
2022/09/29 10:53:39;;;;;;;;;;;19.20;56.50;;;;;;5089131;27;19924;-66
2022/09/29 10:56:09;;;;;;;;;;;19.10;56.70;;;;;;5080201;28;20625;-65
2022/09/29 10:58:38;;;;;;;;;;;19.10;57.00;;;;;;5077109;28;20886;-65
2022/09/29 11:01:13;;;;;;;;;;;19.20;57.20;;;;;;5076661;28;19923;-65
2022/09/29 11:03:45;;;;;;;;;;;19.20;57.40;;;;;;5106082;27;19928;-65
2022/09/29 11:06:11;;;;;;;;;;;19.20;57.50;;;;;;5104613;27;20021;-65
2022/09/29 11:08:57;;;;;;;;;;;19.30;57.60;;;;;;5077817;28;19924;-66
2022/09/29 11:11:25;;;;;;;;;;;19.20;57.60;;;;;;5076749;28;20586;-66
2022/09/29 11:13:51;;;;;;;;;;;19.30;57.80;;;;;;5076894;28;19924;-64
2022/09/29 11:16:33;;;;;;;;;;;19.30;57.90;;;;;;5078389;28;19924;-65
2022/09/29 11:19:02;;;;;;;;;;;19.20;57.90;;;;;;5103709;27;19928;-65
2022/09/29 11:24:29;;;;;;;;;;;19.30;58.00;;;;;;5107244;27;1870392;-71
2022/09/29 11:27:01;;;;;;;;;;;19.30;58.00;;;;;;5156869;27;19923;-69
2022/09/29 11:29:32;;;;;;;;;;;19.30;58.10;;;;;;5159617;27;19919;-69
2022/09/29 11:32:09;;;;;;;;;;;19.30;58.30;;;;;;5153626;27;19922;-69
2022/09/29 11:40:18;;;;;;;;;;;19.40;58.30;;;;;;5066962;28;19920;-65
2022/09/29 11:45:34;;;;;;;;;;;19.40;58.80;;;;;;5070792;28;19920;-67
2022/09/29 11:50:53;;;;;;;;;;;19.50;58.90;;;;;;5087146;27;19928;-68
2022/09/29 11:53:31;;;;;;;;;;;19.50;59.10;;;;;;5080001;28;20855;-67
2022/09/29 11:56:07;;;;;;;;;;;19.50;59.10;;;;;;5075150;28;19924;-69
2022/09/29 11:58:45;;;;;;;;;;;19.50;59.20;;;;;;5063897;28;20288;-67
2022/09/29 12:01:31;;;;;;;;;;;19.50;59.30;;;;;;5059935;28;19954;-65
2022/09/29 12:04:16;;;;;;;;;;;19.60;59.30;;;;;;5063317;28;19924;-66
2022/09/29 12:07:02;;;;;;;;;;;19.70;58.80;;;;;;5078261;28;19927;-65
2022/09/29 12:12:11;;;;;;;;;;;19.90;58.30;;;;;;5097365;27;1866657;-67
2022/09/29 12:14:53;;;;;;;;;;;20.10;57.90;;;;;;5144577;27;19972;-65
2022/09/29 12:17:19;;;;;;;;;;;20.40;57.60;;;;;;5129182;27;19927;-67
2022/09/29 12:19:47;;;;;;;;;;;20.60;57.20;;;;;;5135521;27;20651;-67
2022/09/29 12:22:14;;;;;;;;;;;20.80;56.80;;;;;;5133787;27;19934;-66
2022/09/29 12:24:43;;;;;;;;;;;20.90;56.60;;;;;;5132794;27;19930;-67
2022/09/29 12:27:13;;;;;;;;;;;21.00;56.30;;;;;;5138753;27;19923;-66
2022/09/29 12:29:42;;;;;;;;;;;21.10;56.20;;;;;;5134978;27;19922;-66
2022/09/29 12:32:13;;;;;;;;;;;21.20;56.00;;;;;;5128302;27;20445;-67
2022/09/29 12:34:48;;;;;;;;;;;21.20;55.90;;;;;;5137739;27;19927;-68
2022/09/29 12:37:20;;;;;;;;;;;21.20;55.80;;;;;;5138513;27;19943;-65
2022/09/29 12:45:07;;;;;;;;;;;21.40;55.40;;;;;;5086724;27;1864759;-65
2022/09/29 12:50:37;;;;;;;;;;;21.40;55.10;;;;;;5059232;28;19924;-68
2022/09/29 12:58:29;;;;;;;;;;;21.60;54.80;;;;;;5102115;27;19916;-67
2022/09/29 13:01:00;;;;;;;;;;;21.70;54.60;;;;;;5086815;28;19921;-67
2022/09/29 13:06:27;;;;;;;;;;;21.70;54.40;;;;;;5083760;27;19916;-67
2022/09/29 13:22:51;;;;;;;;;;;21.40;54.50;;;;;;5092834;27;19912;-65
2022/09/29 13:27:59;;;;;;;;;;;21.40;54.00;;;;;;5092493;27;19919;-73
2022/09/29 13:30:30;;;;;;;;;;;21.40;54.00;;;;;;5069359;28;19931;-67
2022/09/29 13:35:44;;;;;;;;;;;21.30;53.80;;;;;;5055487;28;19913;-66
2022/09/29 13:38:15;;;;;;;;;;;21.30;53.70;;;;;;5050405;28;20023;-65
2022/09/29 13:41:00;;;;;;;;;;;21.30;53.60;;;;;;5048642;28;19931;-66
2022/09/29 13:43:45;;;;;;;;;;;21.40;53.70;;;;;;5034004;28;19924;-66
2022/09/29 13:46:31;;;;;;;;;;;21.30;53.30;;;;;;5039399;28;19924;-65
2022/09/29 13:54:42;;;;;;;;;;;21.20;53.20;;;;;;5074377;28;20489;-64
2022/09/29 14:10:53;;;;;;;;;;;21.10;52.80;;;;;;5073865;28;20376;-66
2022/09/29 14:19:06;;;;;;;;;;;21.00;52.50;;;;;;5088731;27;19950;-64
2022/09/29 14:21:52;;;;;;;;;;;20.90;52.40;;;;;;5037327;28;20014;-64
2022/09/29 14:27:34;;;;;;;;;;;20.90;52.40;;;;;;5082965;27;19920;-63
2022/09/29 14:32:50;;;;;;;;;;;20.80;52.40;;;;;;5091800;27;19923;-64
2022/09/29 14:35:21;;;;;;;;;;;20.70;52.30;;;;;;5065655;28;19920;-65
2022/09/29 14:37:50;;;;;;;;;;;20.80;52.00;;;;;;5069794;28;19924;-65
2022/09/29 14:40:32;;;;;;;;;;;20.70;52.00;;;;;;5067164;28;19931;-64
2022/09/29 14:43:02;;;;;;;;;;;20.70;52.50;;;;;;5070937;28;19951;-64
2022/09/29 14:54:01;;;;;;;;;;;20.50;52.00;;;;;;5074493;28;19927;-66
2022/09/29 14:56:35;;;;;;;;;;;20.50;52.50;;;;;;5057924;28;19924;-66
2022/09/29 14:59:20;;;;;;;;;;;20.50;51.80;;;;;;5063052;28;19920;-66
2022/09/29 15:01:59;;;;;;;;;;;20.40;51.90;;;;;;5064259;28;19924;-66
2022/09/29 15:04:26;;;;;;;;;;;20.40;52.10;;;;;;5095396;28;20334;-66
2022/09/29 15:06:52;;;;;;;;;;;20.30;52.30;;;;;;5066958;28;19940;-66
2022/09/29 15:09:18;;;;;;;;;;;20.30;52.40;;;;;;5087158;28;19968;-66
2022/09/29 15:11:48;;;;;;;;;;;20.20;52.60;;;;;;5083917;28;19964;-66
2022/09/29 15:20:01;;;;;;;;;;;20.10;52.90;;;;;;5086969;28;19912;-65
2022/09/29 15:22:51;;;;;;;;;;;20.10;53.10;;;;;;5086441;28;19970;-65
2022/09/29 15:28:24;;;;;;;;;;;20.00;53.30;;;;;;5088609;28;19918;-66
2022/09/29 15:30:53;;;;;;;;;;;19.90;53.20;;;;;;5086868;28;19924;-66
2022/09/29 15:33:22;;;;;;;;;;;19.90;53.30;;;;;;5088338;28;19921;-66
2022/09/29 15:35:51;;;;;;;;;;;19.90;53.50;;;;;;5087831;28;19982;-66
2022/09/29 15:44:01;;;;;;;;;;;19.70;53.80;;;;;;5088835;27;19916;-65
2022/09/29 15:46:36;;;;;;;;;;;19.70;54.00;;;;;;5087072;28;19973;-65
2022/09/29 15:51:54;;;;;;;;;;;19.70;54.20;;;;;;5088624;28;19913;-66
2022/09/29 15:54:19;;;;;;;;;;;19.70;54.40;;;;;;5087461;28;19927;-65
2022/09/29 15:59:50;;;;;;;;;;;19.60;54.50;;;;;;5086246;28;19920;-65
2022/09/29 16:02:19;;;;;;;;;;;19.60;54.60;;;;;;5087508;28;19924;-66
2022/09/29 16:04:46;;;;;;;;;;;19.60;54.70;;;;;;5086541;28;19984;-66
2022/09/29 16:07:19;;;;;;;;;;;19.50;54.70;;;;;;5088581;28;19921;-67
2022/09/29 16:09:45;;;;;;;;;;;19.50;54.90;;;;;;5087241;28;19975;-65
2022/09/29 16:12:15;;;;;;;;;;;19.50;54.90;;;;;;5088669;28;19963;-65
2022/09/29 16:14:40;;;;;;;;;;;19.50;55.10;;;;;;5086504;28;19920;-67
2022/09/29 16:17:07;;;;;;;;;;;19.40;55.10;;;;;;5088138;28;19928;-66
2022/09/29 16:19:33;;;;;;;;;;;19.40;55.20;;;;;;5085617;28;20015;-66
2022/09/29 16:22:00;;;;;;;;;;;19.40;55.30;;;;;;5083501;28;20015;-65
2022/09/29 16:24:29;;;;;;;;;;;19.40;55.40;;;;;;5075793;28;20314;-66
2022/09/29 16:26:55;;;;;;;;;;;19.40;55.60;;;;;;5074490;28;19921;-66
2022/09/29 16:32:22;;;;;;;;;;;19.30;55.60;;;;;;5088880;28;20252;-66
2022/09/29 16:34:47;;;;;;;;;;;19.30;55.70;;;;;;5085562;28;20432;-66
2022/09/29 16:37:16;;;;;;;;;;;19.30;55.80;;;;;;5088039;28;19967;-65
2022/09/29 16:39:43;;;;;;;;;;;19.30;55.90;;;;;;5086262;28;19989;-66
2022/09/29 16:42:16;;;;;;;;;;;19.20;55.80;;;;;;5087057;28;20291;-66
2022/09/29 16:44:42;;;;;;;;;;;19.20;55.90;;;;;;5087893;28;19921;-65
2022/09/29 16:49:51;;;;;;;;;;;19.20;56.00;;;;;;5102304;27;20300;-65
2022/09/29 16:52:22;;;;;;;;;;;19.20;56.10;;;;;;5121553;28;19946;-66
2022/09/29 16:54:48;;;;;;;;;;;19.10;56.10;;;;;;5087775;28;19942;-65
2022/09/29 16:57:17;;;;;;;;;;;19.10;56.20;;;;;;5111775;28;19920;-66
2022/09/29 16:59:42;;;;;;;;;;;19.10;56.20;;;;;;5086490;28;20420;-66
2022/09/29 17:02:10;;;;;;;;;;;19.10;56.30;;;;;;5086662;28;20008;-66
2022/09/29 17:04:35;;;;;;;;;;;19.10;56.30;;;;;;5086434;28;20027;-66
2022/09/29 17:07:02;;;;;;;;;;;19.00;56.40;;;;;;5087081;28;20602;-66
2022/09/29 17:09:27;;;;;;;;;;;19.00;56.40;;;;;;5088287;28;19930;-66
2022/09/29 17:11:53;;;;;;;;;;;19.00;56.50;;;;;;5088314;28;20003;-66
2022/09/29 17:14:20;;;;;;;;;;;19.00;56.60;;;;;;5086827;28;19986;-66